Time;durP1;ratioP1;P1;durP2;ratioP2;P2;SDS_P1;SDS_P2;PMS_P1;PMS_P2;Temp;Humidity;BMP_temperature;BMP_pressure;BME280_temperature;BME280_humidity;BME280_pressure;Samples;Min_cycle;Max_cycle;Signal;HPM_P1;HPM_P2
2024/02/10 00:02:03;;;;;;;20.23;11.98;;;;;;;7.00;100.00;94867.78;5018015;28;20048;-64
2024/02/10 00:04:30;;;;;;;18.92;10.68;;;;;;;6.98;100.00;94867.28;5020183;28;20040;-58
2024/02/10 00:06:57;;;;;;;20.60;11.65;;;;;;;6.95;100.00;94857.09;5018967;28;20033;-59
2024/02/10 00:09:24;;;;;;;19.58;11.38;;;;;;;7.04;100.00;94867.97;5025383;28;20413;-60
2024/02/10 00:11:51;;;;;;;22.60;12.05;;;;;;;7.04;100.00;94865.28;5017919;28;20117;-61
2024/02/10 00:14:18;;;;;;;22.05;12.20;;;;;;;7.02;100.00;94860.22;5025353;28;20098;-63
2024/02/10 00:16:45;;;;;;;21.05;11.15;;;;;;;7.06;100.00;94865.00;5015806;28;20080;-63
2024/02/10 00:19:12;;;;;;;24.27;12.18;;;;;;;7.05;100.00;94866.91;5025987;28;20095;-62
2024/02/10 00:21:39;;;;;;;21.05;11.77;;;;;;;7.29;100.00;94860.63;5025892;28;20049;-58
2024/02/10 00:24:06;;;;;;;21.02;13.13;;;;;;;7.29;100.00;94842.59;5025713;28;20113;-62
2024/02/10 00:26:33;;;;;;;19.42;11.30;;;;;;;7.27;100.00;94838.59;5030884;28;20041;-61
2024/02/10 00:29:01;;;;;;;22.65;13.02;;;;;;;7.24;100.00;94829.22;5020067;28;20045;-61
2024/02/10 00:31:28;;;;;;;25.17;14.68;;;;;;;7.24;100.00;94834.63;5016978;28;20048;-59
2024/02/10 00:33:57;;;;;;;25.27;13.52;;;;;;;7.25;100.00;94846.16;5019645;28;20092;-55
2024/02/10 00:36:24;;;;;;;25.63;13.45;;;;;;;7.28;100.00;94845.56;5014521;28;20104;-60
2024/02/10 00:38:51;;;;;;;21.35;11.93;;;;;;;7.25;100.00;94856.91;5019286;28;20151;-58
2024/02/10 00:41:19;;;;;;;22.25;12.70;;;;;;;7.37;100.00;94867.25;5018476;28;20041;-63
2024/02/10 00:43:46;;;;;;;25.27;13.85;;;;;;;7.24;100.00;94853.44;5028002;28;20446;-63
2024/02/10 00:46:15;;;;;;;29.63;14.73;;;;;;;7.13;100.00;94839.34;5021131;28;20077;-61
2024/02/10 00:48:44;;;;;;;26.65;14.50;;;;;;;7.12;100.00;94847.72;5020187;28;20116;-62
2024/02/10 00:51:10;;;;;;;25.95;14.32;;;;;;;7.10;100.00;94853.38;5018435;28;20060;-60
2024/02/10 00:53:40;;;;;;;20.95;12.95;;;;;;;7.24;100.00;94839.19;5022663;28;20227;-62
2024/02/10 00:56:10;;;;;;;27.77;14.68;;;;;;;7.25;100.00;94840.78;5032414;28;20037;-61
2024/02/10 00:58:40;;;;;;;21.23;11.23;;;;;;;7.24;100.00;94833.81;5023714;28;20527;-61
2024/02/10 01:01:20;;;;;;;20.52;12.32;;;;;;;7.29;100.00;94837.22;5021475;28;20037;-62
2024/02/10 01:03:48;;;;;;;22.20;12.90;;;;;;;7.28;100.00;94832.94;5020665;28;20484;-60
2024/02/10 01:06:17;;;;;;;25.90;12.48;;;;;;;7.29;100.00;94829.13;5025406;28;20044;-63
2024/02/10 01:08:48;;;;;;;22.42;12.25;;;;;;;7.30;100.00;94832.66;5021814;28;20124;-60
2024/02/10 01:11:20;;;;;;;22.85;12.07;;;;;;;7.12;100.00;94801.97;5024388;28;20044;-59
2024/02/10 01:13:49;;;;;;;23.98;12.27;;;;;;;7.14;100.00;94803.28;5028538;28;20049;-61
2024/02/10 01:16:17;;;;;;;22.98;12.93;;;;;;;7.20;100.00;94824.72;5014479;28;20045;-60
2024/02/10 01:18:50;;;;;;;22.33;12.35;;;;;;;7.29;100.00;94829.13;5020584;28;20052;-61
2024/02/10 01:21:17;;;;;;;;;;;;;;;7.21;100.00;94812.84;5032712;28;20041;-56
2024/02/10 01:23:46;;;;;;;20.85;10.90;;;;;;;7.31;100.00;94825.34;5029000;28;19929;-62
2024/02/10 01:26:13;;;;;;;19.98;11.27;;;;;;;7.22;100.00;94814.47;5023530;28;20032;-62
2024/02/10 01:28:44;;;;;;;21.92;11.85;;;;;;;7.22;100.00;94806.41;5021789;28;20116;-62
2024/02/10 01:31:13;;;;;;;20.73;11.85;;;;;;;7.23;100.00;94810.69;5027132;28;20048;-61
2024/02/10 01:33:42;;;;;;;18.23;10.35;;;;;;;7.24;100.00;94799.63;5023265;28;20065;-61
2024/02/10 01:36:09;;;;;;;18.75;11.73;;;;;;;7.28;100.00;94799.81;5022803;28;20121;-60
2024/02/10 01:38:46;;;;;;;19.83;10.73;;;;;;;7.24;100.00;94804.19;5025107;28;20041;-58
2024/02/10 01:41:14;;;;;;;17.15;10.00;;;;;;;7.19;100.00;94785.44;5023065;28;20042;-60
2024/02/10 01:43:43;;;;;;;20.95;11.65;;;;;;;7.25;100.00;94778.88;5033375;28;20496;-58
2024/02/10 01:46:21;;;;;;;18.13;11.07;;;;;;;7.28;100.00;94779.09;5030372;28;20584;-61
2024/02/10 01:48:49;;;;;;;17.35;10.50;;;;;;;7.31;100.00;94760.75;5024570;28;20056;-61
2024/02/10 01:51:18;;;;;;;15.57;10.00;;;;;;;7.39;100.00;94755.50;5029523;28;20487;-62
2024/02/10 01:53:45;;;;;;;17.50;9.75;;;;;;;7.45;100.00;94726.59;5018703;28;20103;-59
2024/02/10 01:56:16;;;;;;;15.93;10.15;;;;;;;7.34;100.00;94703.63;5029497;28;20065;-61
2024/02/10 01:58:47;;;;;;;16.98;10.35;;;;;;;7.33;100.00;94704.75;5019420;28;20076;-60
2024/02/10 02:01:16;;;;;;;18.83;10.50;;;;;;;7.36;100.00;94706.81;5021538;28;20045;-56
2024/02/10 02:03:43;;;;;;;15.88;9.65;;;;;;;7.34;100.00;94704.41;5026155;28;20514;-57
2024/02/10 02:06:17;;;;;;;14.80;8.68;;;;;;;7.21;100.00;94697.94;5016047;28;20041;-61
2024/02/10 02:08:47;;;;;;;14.77;9.23;;;;;;;7.27;100.00;94698.66;5026436;28;20049;-61
2024/02/10 02:11:14;;;;;;;16.65;9.68;;;;;;;7.27;100.00;94693.25;5034357;28;20049;-61
2024/02/10 02:13:41;;;;;;;14.27;9.20;;;;;;;7.23;100.00;94684.19;5026163;28;20120;-63
2024/02/10 02:16:11;;;;;;;18.27;8.82;;;;;;;7.26;100.00;94680.91;5024644;28;20025;-62
2024/02/10 02:18:39;;;;;;;14.35;8.45;;;;;;;7.20;100.00;94685.56;5027659;28;20068;-62
2024/02/10 02:21:06;;;;;;;14.98;9.05;;;;;;;6.95;100.00;94679.53;5027608;28;20069;-60
2024/02/10 02:23:35;;;;;;;17.50;9.73;;;;;;;6.83;100.00;94700.72;5028240;28;20117;-57
2024/02/10 02:26:02;;;;;;;16.20;9.82;;;;;;;6.90;100.00;94728.06;5022586;28;20136;-62
2024/02/10 02:28:29;;;;;;;16.52;9.07;;;;;;;6.99;100.00;94722.78;5026807;28;20762;-61
2024/02/10 02:30:55;;;;;;;16.08;9.75;;;;;;;7.22;100.00;94715.66;5023150;28;20044;-64
2024/02/10 02:33:22;;;;;;;14.93;8.95;;;;;;;7.14;100.00;94690.25;5024263;28;20053;-61
2024/02/10 02:35:50;;;;;;;15.38;9.10;;;;;;;7.10;100.00;94691.94;5022605;28;20140;-60
2024/02/10 02:38:17;;;;;;;14.48;8.63;;;;;;;7.30;100.00;94687.28;5024104;28;20037;-60
2024/02/10 02:40:43;;;;;;;15.25;9.25;;;;;;;7.26;100.00;94657.47;5028644;28;20094;-61
2024/02/10 02:43:12;;;;;;;13.90;8.80;;;;;;;7.13;100.00;94661.75;5022877;28;20420;-60
2024/02/10 02:45:42;;;;;;;15.88;9.00;;;;;;;7.14;100.00;94667.91;5019428;28;20038;-61
2024/02/10 02:48:10;;;;;;;15.35;9.30;;;;;;;7.14;100.00;94663.34;5037119;28;20096;-61
2024/02/10 02:50:42;;;;;;;16.10;10.25;;;;;;;7.10;100.00;94661.53;5023858;28;20583;-61
2024/02/10 02:53:08;;;;;;;14.20;9.25;;;;;;;7.10;100.00;94651.56;5021305;28;20042;-60
2024/02/10 02:55:35;;;;;;;14.35;8.65;;;;;;;7.07;100.00;94652.16;5026155;28;20045;-59
2024/02/10 02:58:06;;;;;;;12.60;8.32;;;;;;;7.14;100.00;94644.50;5019364;28;20128;-60
2024/02/10 03:00:33;;;;;;;16.38;8.57;;;;;;;7.05;100.00;94627.44;5028407;28;20041;-61
2024/02/10 03:03:03;;;;;;;16.25;8.10;;;;;;;7.02;100.00;94620.78;5026465;28;20103;-61
2024/02/10 03:05:33;;;;;;;11.63;7.50;;;;;;;7.13;100.00;94610.63;5024280;28;20037;-61
2024/02/10 03:07:59;;;;;;;14.23;7.65;;;;;;;7.00;100.00;94606.81;5031380;28;20548;-58
2024/02/10 03:10:26;;;;;;;13.15;7.50;;;;;;;6.95;100.00;94609.59;5018896;28;20061;-61
2024/02/10 03:12:54;;;;;;;11.02;7.05;;;;;;;6.86;100.00;94604.09;5023234;28;20052;-61
2024/02/10 03:15:21;;;;;;;11.75;7.47;;;;;;;6.80;100.00;94612.56;5023455;28;20038;-62
2024/02/10 03:17:49;;;;;;;11.20;7.55;;;;;;;6.53;100.00;94590.69;5035685;28;20663;-60
2024/02/10 03:20:28;;;;;;;11.73;7.68;;;;;;;6.43;100.00;94593.53;5025151;28;20541;-60
2024/02/10 03:23:01;;;;;;;14.13;8.35;;;;;;;6.57;100.00;94639.28;5025000;28;20045;-61
2024/02/10 03:25:28;;;;;;;14.45;7.97;;;;;;;6.51;100.00;94638.56;5027741;28;20030;-62
2024/02/10 03:27:56;;;;;;;14.95;7.93;;;;;;;6.47;100.00;94646.44;5028254;28;20517;-61
2024/02/10 03:30:24;;;;;;;13.68;7.57;;;;;;;6.44;100.00;94646.19;5027884;28;20132;-60
2024/02/10 03:32:55;;;;;;;14.55;8.00;;;;;;;6.44;100.00;94654.25;5023421;28;20041;-61
2024/02/10 03:35:24;;;;;;;14.90;8.82;;;;;;;6.22;100.00;94632.28;5023081;28;20041;-63
2024/02/10 03:37:51;;;;;;;15.63;8.63;;;;;;;6.03;100.00;94626.91;5022056;28;20525;-60
2024/02/10 03:40:18;;;;;;;15.20;9.07;;;;;;;5.91;100.00;94631.91;5024980;28;20041;-61
2024/02/10 03:42:46;;;;;;;18.02;8.88;;;;;;;5.88;100.00;94638.66;5023384;28;20059;-61
2024/02/10 03:45:16;;;;;;;16.83;9.50;;;;;;;5.90;100.00;94641.03;5037636;28;20116;-60
2024/02/10 03:47:43;;;;;;;15.85;9.30;;;;;;;5.82;100.00;94659.41;5023393;28;20041;-62
2024/02/10 03:50:13;;;;;;;15.30;8.65;;;;;;;5.83;100.00;94668.25;5023363;28;20091;-60
2024/02/10 03:52:41;;;;;;;16.92;9.40;;;;;;;5.72;100.00;94659.53;5017726;28;20172;-60
2024/02/10 03:55:08;;;;;;;18.35;9.45;;;;;;;5.66;100.00;94668.72;5027526;28;20060;-62
2024/02/10 03:57:36;;;;;;;14.70;9.63;;;;;;;5.79;100.00;94684.13;5021755;28;20073;-60
2024/02/10 04:00:20;;;;;;;15.30;9.13;;;;;;;5.70;100.00;94686.66;5024966;28;20053;-58
2024/02/10 04:02:47;;;;;;;20.58;10.10;;;;;;;5.85;100.00;94695.59;5025346;28;20076;-59
2024/02/10 04:05:14;;;;;;;19.52;10.35;;;;;;;5.83;100.00;94705.84;5028936;28;20417;-62
2024/02/10 04:07:41;;;;;;;14.82;8.73;;;;;;;5.86;100.00;94711.44;5028778;28;20037;-61
2024/02/10 04:10:08;;;;;;;13.10;7.93;;;;;;;5.77;100.00;94698.94;5026757;28;20037;-62
2024/02/10 04:12:35;;;;;;;13.70;7.93;;;;;;;5.52;100.00;94665.94;5021205;28;20132;-63
2024/02/10 04:15:04;;;;;;;16.40;8.82;;;;;;;5.37;100.00;94646.25;5024136;28;20130;-60
2024/02/10 04:17:30;;;;;;;15.80;9.35;;;;;;;5.32;100.00;94657.84;5019856;28;20056;-59
2024/02/10 04:19:57;;;;;;;16.73;9.32;;;;;;;5.26;100.00;94676.94;5025565;28;20041;-61
2024/02/10 04:22:24;;;;;;;15.82;8.75;;;;;;;5.25;100.00;94688.78;5025610;28;20092;-62
2024/02/10 04:24:53;;;;;;;18.60;9.18;;;;;;;5.14;100.00;94691.56;5019682;28;20125;-61
2024/02/10 04:27:20;;;;;;;16.08;8.02;;;;;;;5.15;100.00;94705.75;5021653;28;20107;-61
2024/02/10 04:29:46;;;;;;;15.00;8.48;;;;;;;5.06;100.00;94711.75;5018226;28;20057;-62
2024/02/10 04:32:13;;;;;;;19.25;9.57;;;;;;;5.08;100.00;94709.59;5027715;28;20051;-60
2024/02/10 04:34:43;;;;;;;20.30;8.82;;;;;;;5.00;100.00;94717.44;5015140;28;20412;-62
2024/02/10 04:37:12;;;;;;;15.23;9.20;;;;;;;4.91;100.00;94712.66;5025624;28;20404;-59
2024/02/10 04:39:40;;;;;;;19.17;8.30;;;;;;;4.68;100.00;94698.94;5017594;28;20420;-62
2024/02/10 04:42:06;;;;;;;16.13;7.93;;;;;;;4.67;100.00;94696.53;5028425;28;20043;-60
2024/02/10 04:44:33;;;;;;;16.75;7.75;;;;;;;4.69;100.00;94695.16;5018996;28;20037;-61
2024/02/10 04:47:00;;;;;;;70.32;9.38;;;;;;;4.39;100.00;94685.50;5024865;28;20532;-62
2024/02/10 04:49:27;;;;;;;27.98;7.85;;;;;;;4.31;100.00;94680.72;5023258;28;20373;-58
2024/02/10 04:51:53;;;;;;;13.45;7.03;;;;;;;4.34;100.00;94696.22;5024734;28;20080;-62
2024/02/10 04:54:20;;;;;;;13.77;7.32;;;;;;;4.43;100.00;94702.59;5022485;28;20041;-57
2024/02/10 04:56:48;;;;;;;16.60;9.05;;;;;;;4.58;100.00;94730.38;5031144;28;20120;-61
2024/02/10 04:59:25;;;;;;;15.18;9.10;;;;;;;4.60;100.00;94736.25;5028690;28;20049;-60
2024/02/10 05:01:53;;;;;;;25.92;8.57;;;;;;;4.28;100.00;94711.53;5024190;28;20108;-60
2024/02/10 05:04:19;;;;;;;18.10;9.00;;;;;;;4.19;100.00;94702.47;5021593;28;20038;-61
2024/02/10 05:06:47;;;;;;;19.83;9.85;;;;;;;4.29;100.00;94700.56;5033379;28;20045;-57
2024/02/10 05:09:14;;;;;;;20.30;9.90;;;;;;;4.20;100.00;94701.41;5026937;28;20037;-58
2024/02/10 05:11:41;;;;;;;19.95;10.27;;;;;;;4.19;100.00;94705.16;5024815;28;20678;-63
2024/02/10 05:14:09;;;;;;;21.77;10.50;;;;;;;4.25;100.00;94710.22;5025926;28;20041;-62
2024/02/10 05:16:36;;;;;;;16.50;9.70;;;;;;;4.28;100.00;94712.31;5026344;28;20537;-58
2024/02/10 05:19:02;;;;;;;19.17;10.80;;;;;;;4.27;100.00;94708.06;5023686;28;20563;-55
2024/02/10 05:21:31;;;;;;;19.90;10.85;;;;;;;4.39;100.00;94723.00;5035922;28;20053;-61
2024/02/10 05:24:05;;;;;;;20.25;11.77;;;;;;;4.49;100.00;94728.28;5033543;28;20044;-60
2024/02/10 05:26:36;;;;;;;24.75;10.75;;;;;;;4.28;100.00;94722.25;5025331;28;20034;-62
2024/02/10 05:29:06;;;;;;;18.48;10.10;;;;;;;4.25;100.00;94720.13;5019611;28;20116;-60
2024/02/10 05:31:36;;;;;;;19.67;10.23;;;;;;;4.32;100.00;94715.28;5028847;28;20520;-64
2024/02/10 05:34:04;;;;;;;20.30;10.73;;;;;;;4.20;100.00;94715.59;5023828;28;20045;-60
2024/02/10 05:36:34;;;;;;;22.23;11.27;;;;;;;4.14;100.00;94706.00;5032739;28;20095;-60
2024/02/10 05:39:03;;;;;;;19.20;10.33;;;;;;;4.24;100.00;94713.97;5031883;28;20054;-56
2024/02/10 05:41:30;;;;;;;20.30;10.25;;;;;;;4.27;100.00;94710.72;5020884;28;20048;-60
2024/02/10 05:43:56;;;;;;;19.92;11.50;;;;;;;4.35;100.00;94709.34;5019713;28;20047;-61
2024/02/10 05:46:23;;;;;;;21.48;11.65;;;;;;;4.42;100.00;94711.69;5021097;28;20038;-59
2024/02/10 05:48:50;;;;;;;26.88;12.88;;;;;;;4.43;100.00;94710.66;5019889;28;20057;-62
2024/02/10 05:51:17;;;;;;;27.52;13.32;;;;;;;4.46;100.00;94707.38;5025063;28;20055;-61
2024/02/10 05:53:49;;;;;;;27.58;13.07;;;;;;;4.76;100.00;94716.28;5027853;28;20041;-63
2024/02/10 05:56:19;;;;;;;32.85;14.68;;;;;;;5.01;100.00;94722.53;5031430;28;20131;-63
2024/02/10 05:58:46;;;;;;;29.67;13.38;;;;;;;4.82;100.00;94725.91;5033164;28;20045;-63
2024/02/10 06:01:19;;;;;;;20.52;11.38;;;;;;;4.74;100.00;94715.78;5025378;28;20049;-62
2024/02/10 06:03:46;;;;;;;27.90;13.45;;;;;;;4.49;100.00;94706.84;5026253;28;20046;-62
2024/02/10 06:06:15;;;;;;;26.85;12.23;;;;;;;4.57;100.00;94707.34;5032326;28;20052;-59
2024/02/10 06:08:42;;;;;;;25.63;13.15;;;;;;;4.51;100.00;94704.69;5030040;28;20055;-60
2024/02/10 06:11:09;;;;;;;26.42;13.63;;;;;;;4.46;100.00;94709.28;5024848;28;20041;-60
2024/02/10 06:13:35;;;;;;;25.42;13.32;;;;;;;4.45;100.00;94719.19;5026312;28;20057;-60
2024/02/10 06:16:05;;;;;;;25.20;12.05;;;;;;;4.47;100.00;94719.72;5027890;28;20065;-61
2024/02/10 06:18:33;;;;;;;25.20;12.48;;;;;;;4.58;100.00;94719.66;5026886;28;20049;-58
2024/02/10 06:21:00;;;;;;;24.58;11.20;;;;;;;4.60;100.00;94734.38;5028932;28;20048;-57
2024/02/10 06:23:27;;;;;;;25.85;12.80;;;;;;;4.72;100.00;94742.03;5025915;28;20537;-59
2024/02/10 06:25:54;;;;;;;28.25;12.80;;;;;;;4.64;100.00;94742.66;5017431;28;20116;-61
2024/02/10 06:28:22;;;;;;;25.38;12.23;;;;;;;4.51;100.00;94733.38;5021459;28;20038;-60
2024/02/10 06:30:49;;;;;;;25.25;12.43;;;;;;;4.42;100.00;94719.75;5020323;28;20049;-61
2024/02/10 06:33:16;;;;;;;24.45;11.30;;;;;;;4.49;100.00;94709.53;5020240;28;20044;-60
2024/02/10 06:35:49;;;;;;;30.80;13.48;;;;;;;4.68;100.00;94711.53;5026984;28;20122;-57
2024/02/10 06:38:16;;;;;;;33.88;14.15;;;;;;;4.67;100.00;94728.69;5031015;28;20037;-62
2024/02/10 06:40:43;;;;;;;28.95;12.98;;;;;;;4.66;100.00;94722.53;5023265;28;20076;-61
2024/02/10 06:43:13;;;;;;;29.98;14.05;;;;;;;4.66;100.00;94724.41;5023384;28;20041;-62
2024/02/10 06:45:40;;;;;;;29.00;14.07;;;;;;;4.68;100.00;94733.78;5016401;28;20434;-62
2024/02/10 06:48:11;;;;;;;26.65;13.50;;;;;;;4.66;100.00;94725.22;5018490;28;20596;-62
2024/02/10 06:50:39;;;;;;;28.38;13.35;;;;;;;4.85;100.00;94726.41;5014702;28;20049;-58
2024/02/10 06:53:08;;;;;;;32.22;13.90;;;;;;;4.79;100.00;94733.72;5019442;28;20672;-62
2024/02/10 06:55:36;;;;;;;27.77;14.00;;;;;;;4.70;100.00;94717.41;5021186;28;20034;-63
2024/02/10 06:58:03;;;;;;;29.27;14.07;;;;;;;4.76;100.00;94723.53;5017772;28;20595;-64
2024/02/10 07:00:37;;;;;;;27.58;13.65;;;;;;;4.71;100.00;94718.22;5028288;28;20116;-61
2024/02/10 07:03:05;;;;;;;29.25;14.13;;;;;;;4.65;100.00;94714.78;5025492;28;20064;-63
2024/02/10 07:05:33;;;;;;;30.98;14.90;;;;;;;4.79;100.00;94714.94;5024580;28;20048;-64
2024/02/10 07:08:00;;;;;;;31.40;14.75;;;;;;;5.04;100.00;94721.97;5029776;28;20124;-61
2024/02/10 07:10:26;;;;;;;31.42;15.73;;;;;;;5.12;100.00;94728.59;5025209;28;20073;-58
2024/02/10 07:12:54;;;;;;;27.60;14.77;;;;;;;4.79;100.00;94710.38;5029882;28;20069;-58
2024/02/10 07:15:29;;;;;;;30.88;14.77;;;;;;;4.66;100.00;94693.06;5014172;28;20137;-55
2024/02/10 07:17:56;;;;;;;25.05;12.35;;;;;;;4.75;100.00;94706.66;5019423;28;20052;-59
2024/02/10 07:20:24;;;;;;;33.80;15.15;;;;;;;4.88;100.00;94707.09;5029705;28;20120;-57
2024/02/10 07:22:56;;;;;;;34.72;15.88;;;;;;;4.89;100.00;94709.50;5026577;28;20052;-59
2024/02/10 07:25:27;;;;;;;29.70;15.13;;;;;;;4.89;100.00;94703.31;5026935;28;20123;-59
2024/02/10 07:27:59;;;;;;;24.38;11.05;;;;;;;4.91;100.00;94695.81;5020164;28;20054;-60
2024/02/10 07:30:26;;;;;;;31.02;14.93;;;;;;;5.12;100.00;94707.13;5022063;28;20041;-60
2024/02/10 07:32:53;;;;;;;33.13;13.85;;;;;;;5.30;100.00;94713.66;5023181;28;20484;-58
2024/02/10 07:35:23;;;;;;;26.50;14.15;;;;;;;5.13;100.00;94724.03;5023344;28;20152;-61
2024/02/10 07:37:49;;;;;;;25.92;13.65;;;;;;;4.88;100.00;94705.22;5031867;28;20040;-61
2024/02/10 07:40:19;;;;;;;25.73;13.32;;;;;;;5.03;100.00;94688.19;5023414;28;20048;-58
2024/02/10 07:42:46;;;;;;;34.28;14.02;;;;;;;5.21;100.00;94694.69;5014178;28;20116;-59
2024/02/10 07:45:13;;;;;;;30.95;14.68;;;;;;;5.37;100.00;94693.72;5019360;28;20041;-57
2024/02/10 07:47:39;;;;;;;32.08;14.48;;;;;;;5.45;100.00;94706.53;5017446;28;20042;-59
2024/02/10 07:50:06;;;;;;;28.40;13.07;;;;;;;5.43;100.00;94706.03;5022179;28;20559;-59
2024/02/10 07:52:33;;;;;;;29.27;13.18;;;;;;;5.47;100.00;94683.72;5020060;28;20124;-59
2024/02/10 07:55:00;;;;;;;30.83;14.38;;;;;;;5.62;100.00;94681.13;5026287;28;20073;-60
2024/02/10 07:57:29;;;;;;;24.38;13.93;;;;;;;5.65;100.00;94683.25;5025198;28;20556;-59
2024/02/10 07:59:56;;;;;;;27.55;14.82;;;;;;;5.75;100.00;94676.97;5025930;28;20049;-57
2024/02/10 08:02:27;;;;;;;25.40;14.38;;;;;;;5.70;100.00;94664.38;5023614;28;20497;-58
2024/02/10 08:04:56;;;;;;;27.25;12.55;;;;;;;5.84;100.00;94675.22;5018670;28;20057;-59
2024/02/10 08:07:29;;;;;;;26.90;14.75;;;;;;;5.90;100.00;94671.38;5028155;28;20037;-59
2024/02/10 08:09:57;;;;;;;31.20;15.25;;;;;;;5.96;100.00;94664.06;5024751;28;20127;-58
2024/02/10 08:12:24;;;;;;;27.77;15.13;;;;;;;6.06;100.00;94661.28;5025518;28;20404;-58
2024/02/10 08:14:55;;;;;;;27.02;15.38;;;;;;;6.09;100.00;94652.63;5021396;28;20048;-58
2024/02/10 08:17:26;;;;;;;28.98;14.50;;;;;;;6.02;100.00;94625.31;5024948;28;20560;-54
2024/02/10 08:20:00;;;;;;;;;;;;;;;5.99;100.00;94618.63;5028612;28;20048;-58
2024/02/10 08:22:30;;;;;;;23.23;13.55;;;;;;;6.19;100.00;94615.97;5017181;28;19925;-58
2024/02/10 08:24:59;;;;;;;26.35;14.85;;;;;;;6.33;100.00;94619.50;5024164;28;20064;-57
2024/02/10 08:27:28;;;;;;;28.02;15.13;;;;;;;6.49;100.00;94627.31;5026164;28;20113;-59
2024/02/10 08:29:55;;;;;;;29.98;15.90;;;;;;;6.57;100.00;94615.91;5023310;28;20048;-58
2024/02/10 08:32:22;;;;;;;32.25;17.58;;;;;;;6.73;100.00;94612.94;5024972;28;20051;-59
2024/02/10 08:34:51;;;;;;;32.10;18.33;;;;;;;6.75;100.00;94581.19;5023405;28;20123;-58
2024/02/10 08:37:18;;;;;;;30.88;16.63;;;;;;;6.85;100.00;94580.19;5032481;28;20064;-58
2024/02/10 08:39:45;;;;;;;30.70;18.05;;;;;;;6.86;100.00;94563.75;5023973;28;20041;-57
2024/02/10 08:42:14;;;;;;;30.08;18.08;;;;;;;6.84;100.00;94557.88;5022235;28;20041;-56
2024/02/10 08:44:41;;;;;;;32.22;20.30;;;;;;;6.92;100.00;94555.59;5025147;28;20053;-59
2024/02/10 08:47:07;;;;;;;33.60;19.45;;;;;;;7.00;100.00;94555.69;5021259;28;20064;-59
2024/02/10 08:49:35;;;;;;;30.40;19.38;;;;;;;7.05;100.00;94556.69;5027452;28;20044;-55
2024/02/10 08:52:09;;;;;;;27.08;17.20;;;;;;;7.03;100.00;94557.78;5017042;28;20183;-59
2024/02/10 08:54:43;;;;;;;30.50;18.83;;;;;;;7.11;100.00;94555.50;5020393;28;20131;-59
2024/02/10 08:57:09;;;;;;;30.17;18.42;;;;;;;7.22;100.00;94553.41;5028793;28;20044;-57
2024/02/10 08:59:41;;;;;;;30.60;17.88;;;;;;;7.20;100.00;94542.94;5018651;28;20033;-56
2024/02/10 09:02:08;;;;;;;29.38;18.58;;;;;;;7.32;100.00;94541.63;5031914;28;20041;-55
2024/02/10 09:04:34;;;;;;;30.50;19.73;;;;;;;7.37;100.00;94542.31;5019204;28;20041;-58
2024/02/10 09:07:01;;;;;;;29.67;19.88;;;;;;;7.42;100.00;94536.81;5023623;28;20041;-59
2024/02/10 09:09:28;;;;;;;29.55;18.48;;;;;;;7.38;100.00;94538.53;5025766;28;20080;-58
2024/02/10 09:11:54;;;;;;;27.67;18.45;;;;;;;7.46;100.00;94541.59;5019799;28;20073;-59
2024/02/10 09:14:21;;;;;;;29.55;18.17;;;;;;;7.59;100.00;94556.94;5023027;28;20124;-59
2024/02/10 09:16:48;;;;;;;26.38;17.02;;;;;;;7.64;100.00;94553.34;5027986;28;20775;-59
2024/02/10 09:19:16;;;;;;;24.70;17.33;;;;;;;7.72;100.00;94554.53;5028820;28;20123;-58
2024/02/10 09:21:44;;;;;;;25.35;17.50;;;;;;;7.76;100.00;94553.63;5018391;28;20125;-59
2024/02/10 09:24:13;;;;;;;25.42;16.52;;;;;;;7.83;100.00;94557.78;5022670;28;20096;-58
2024/02/10 09:26:40;;;;;;;25.13;16.55;;;;;;;7.85;100.00;94569.06;5026576;28;20554;-59
2024/02/10 09:29:07;;;;;;;24.20;16.45;;;;;;;7.85;100.00;94561.75;5027032;28;20546;-60
2024/02/10 09:31:34;;;;;;;26.92;17.60;;;;;;;7.88;100.00;94574.63;5033123;28;20116;-58
2024/02/10 09:34:01;;;;;;;28.83;18.80;;;;;;;7.91;100.00;94571.34;5023661;28;20045;-59
2024/02/10 09:36:28;;;;;;;21.33;15.02;;;;;;;7.98;100.00;94572.81;5023043;28;20045;-59
2024/02/10 09:38:59;;;;;;;23.23;15.30;;;;;;;8.01;100.00;94562.22;5017241;28;20045;-58
2024/02/10 09:41:25;;;;;;;24.02;16.30;;;;;;;8.11;100.00;94565.78;5019449;28;20088;-59
2024/02/10 09:43:52;;;;;;;21.20;13.80;;;;;;;8.17;100.00;94564.56;5027304;28;20049;-59
2024/02/10 09:46:18;;;;;;;24.77;16.63;;;;;;;8.22;100.00;94564.44;5032653;28;20073;-56
2024/02/10 09:48:47;;;;;;;25.23;17.02;;;;;;;8.29;100.00;94554.03;5030356;28;20041;-57
2024/02/10 09:51:14;;;;;;;20.88;13.50;;;;;;;8.36;100.00;94564.38;5028128;28;20099;-59
2024/02/10 09:53:41;;;;;;;22.35;12.93;;;;;;;8.29;100.00;94553.25;5031589;28;20493;-59
2024/02/10 09:56:12;;;;;;;21.92;13.70;;;;;;;8.38;100.00;94554.09;5024588;28;20065;-59
2024/02/10 09:58:46;;;;;;;20.02;12.57;;;;;;;8.41;100.00;94553.47;5020195;28;20046;-59
2024/02/10 10:01:13;;;;;;;17.33;10.95;;;;;;;8.36;100.00;94550.88;5022316;28;20444;-58
2024/02/10 10:03:40;;;;;;;16.98;10.13;;;;;;;8.50;100.00;94545.44;5023698;28;20041;-58
2024/02/10 10:06:11;;;;;;;16.30;10.20;;;;;;;8.55;100.00;94541.84;5030646;28;20056;-59
2024/02/10 10:08:39;;;;;;;17.33;9.70;;;;;;;8.34;100.00;94539.63;5021198;28;20059;-59
2024/02/10 10:11:06;;;;;;;15.95;10.25;;;;;;;8.33;100.00;94540.72;5020657;28;20045;-58
2024/02/10 10:13:35;;;;;;;20.13;10.77;;;;;;;8.39;100.00;94538.69;5020522;28;20389;-59
2024/02/10 10:16:05;;;;;;;17.45;10.57;;;;;;;8.36;100.00;94540.09;5031557;28;20048;-57
2024/02/10 10:18:35;;;;;;;17.75;10.73;;;;;;;8.33;100.00;94536.13;5033065;28;20041;-57
2024/02/10 10:21:06;;;;;;;16.10;9.93;;;;;;;8.43;100.00;94536.97;5023760;28;20049;-58
2024/02/10 10:23:33;;;;;;;19.38;10.82;;;;;;;8.42;100.00;94532.69;5032350;28;20521;-58
2024/02/10 10:26:00;;;;;;;18.88;11.13;;;;;;;8.48;100.00;94526.06;5021184;28;20046;-57
2024/02/10 10:28:26;;;;;;;16.45;10.50;;;;;;;8.51;100.00;94527.38;5023197;28;20030;-59
2024/02/10 10:30:56;;;;;;;16.30;10.25;;;;;;;8.55;100.00;94518.34;5027396;28;20045;-58
2024/02/10 10:33:25;;;;;;;15.85;10.68;;;;;;;8.62;100.00;94517.91;5026216;28;20492;-56
2024/02/10 10:35:54;;;;;;;19.75;12.38;;;;;;;8.72;100.00;94519.56;5023425;28;20046;-59
2024/02/10 10:38:22;;;;;;;40.80;25.48;;;;;;;8.77;100.00;94513.22;5026850;28;20045;-59
2024/02/10 10:40:51;;;;;;;60.13;39.88;;;;;;;8.79;100.00;94511.00;5023312;28;20049;-58
2024/02/10 10:43:20;;;;;;;31.83;21.27;;;;;;;8.82;100.00;94507.69;5023967;28;20042;-55
2024/02/10 10:45:48;;;;;;;22.25;15.45;;;;;;;8.89;100.00;94497.25;5021818;28;20049;-58
2024/02/10 10:48:15;;;;;;;21.17;13.25;;;;;;;8.97;100.00;94493.00;5026041;28;20055;-59
2024/02/10 10:50:42;;;;;;;16.00;10.73;;;;;;;9.01;100.00;94482.34;5027851;28;20052;-59
2024/02/10 10:53:09;;;;;;;18.40;12.75;;;;;;;9.08;100.00;94474.59;5025175;28;20048;-58
2024/02/10 10:55:43;;;;;;;18.45;12.98;;;;;;;9.14;100.00;94469.84;5024154;28;20041;-60
2024/02/10 10:58:16;;;;;;;19.55;13.18;;;;;;;9.20;100.00;94464.00;5017354;28;20130;-59
2024/02/10 11:00:46;;;;;;;19.15;12.07;;;;;;;9.18;100.00;94462.72;5021646;28;20033;-57
2024/02/10 11:03:14;;;;;;;20.65;13.23;;;;;;;9.19;100.00;94453.50;5031779;28;20040;-57
2024/02/10 11:05:42;;;;;;;17.92;12.80;;;;;;;9.11;100.00;94447.78;5028131;28;20544;-58
2024/02/10 11:08:13;;;;;;;18.52;13.50;;;;;;;9.15;100.00;94445.25;5027007;28;20438;-57
2024/02/10 11:10:41;;;;;;;20.02;13.20;;;;;;;9.14;100.00;94430.16;5023162;28;20042;-59
2024/02/10 11:13:22;;;;;;;21.88;14.65;;;;;;;9.11;100.00;94430.78;5012549;28;20083;-59
2024/02/10 11:16:03;;;;;;;19.65;11.70;;;;;;;9.20;100.00;94420.81;5019574;28;20038;-59
2024/02/10 11:18:33;;;;;;;17.52;10.95;;;;;;;9.29;100.00;94406.50;5036429;28;20114;-57
2024/02/10 11:21:16;;;;;;;16.23;10.88;;;;;;;9.35;100.00;94399.84;5031829;28;20037;-60
2024/02/10 11:23:42;;;;;;;17.08;11.57;;;;;;;9.54;100.00;94382.53;5019483;28;20048;-59
2024/02/10 11:26:10;;;;;;;17.00;10.60;;;;;;;9.43;100.00;94377.44;5021559;28;20123;-58